Andesborg — PCLC — position and weather

sailwx.info

Track history (hours):
 
Tides and Currents Weather Stations Pressure Air Temp Water Temp Dewpoint Dewpoint Depression Visibility Wind Speed Wind Dir Waves Ship Positions

Andesborg

Last reported at 2014-Oct-01 03:33 UTC. Time now 2014-Oct-21 07:10 UTC.
Position N 17°09' W 063°25'.
Warning: this ship's position is 20 days out of date.

Length 142 m; draft 8.5 m.

Type: Ship. MMSI: 246797000.

Date/timePositionNaut miles runAvg speedWind from/ knotsBaromVisibWave heightAir tempDewpointWater temp
2014-Oct-01 03:33N 17°09' W 063°25'  
2014-Sep-23 17:33N 37°02' W 026°57'1313.5
2014-Sep-23 16:33N 37°09' W 026°43'1313.3
2014-Sep-23 15:33N 37°16' W 026°28'1313.2
2014-Sep-23 14:33N 37°23' W 026°14'1313.3
2014-Sep-23 13:33N 37°30' W 026°00'1413.6
2014-Sep-23 12:33N 37°37' W 025°45'1312.7
2014-Sep-23 11:33N 37°39' W 025°30'1312.8
2014-Sep-23 10:33N 37°41' W 025°14'1312.8
2014-Sep-23 09:33N 37°43' W 024°58'1312.6
2014-Sep-23 08:33N 37°45' W 024°42'1312.7
2014-Sep-23 07:33N 37°49' W 024°27'1312.7
2014-Sep-23 06:33N 37°54' W 024°12'1312.8
2014-Sep-23 05:33N 37°59' W 023°57'  
Track history (hours):
 
Tides and Currents Weather Stations Pressure Air Temp Water Temp Dewpoint Dewpoint Depression Visibility Wind Speed Wind Dir Waves Ship Positions

Andesborg

Last reported at 2014-Oct-01 03:33 UTC. Time now 2014-Oct-21 07:10 UTC.
Position N 17°09' W 063°25'.
Warning: this ship's position is 20 days out of date.

Length 142 m; draft 8.5 m.

Type: Ship. MMSI: 246797000.

Date/timePositionNaut miles runAvg speedWind from/ knotsBaromVisibWave heightAir tempDewpointWater temp
2014-Oct-01 03:33N 17°09' W 063°25'  
2014-Sep-23 17:33N 37°02' W 026°57'1313.5
2014-Sep-23 16:33N 37°09' W 026°43'1313.3
2014-Sep-23 15:33N 37°16' W 026°28'1313.2
2014-Sep-23 14:33N 37°23' W 026°14'1313.3
2014-Sep-23 13:33N 37°30' W 026°00'1413.6
2014-Sep-23 12:33N 37°37' W 025°45'1312.7
2014-Sep-23 11:33N 37°39' W 025°30'1312.8
2014-Sep-23 10:33N 37°41' W 025°14'1312.8
2014-Sep-23 09:33N 37°43' W 024°58'1312.6
2014-Sep-23 08:33N 37°45' W 024°42'1312.7
2014-Sep-23 07:33N 37°49' W 024°27'1312.7
2014-Sep-23 06:33N 37°54' W 024°12'1312.8
2014-Sep-23 05:33N 37°59' W 023°57'  

Dump ship's entire track history